UMMS 181000Z 03005G08MPS 360V080 9999 BKN033 10/00 Q1004 NOSIG
QNH:(hPa/inHg/mmHg)1004 / 29.65 / 753
QFE:(hPa/inHg/mmHg)979 / 28.90 / 734
Temperature10
Dew Point0
Visibility> 10000
Weather
Cloud CoverBKN (3300);
Transition Altitude6000 ft.
Transition LevelFL80
SQUAWK